Ship Status Report: callsign BATFR15

sailwx.info

Track history (hours):
 
Tides and Currents Weather Stations Pressure Air Temp Water Temp Dewpoint Dewpoint Depression Visibility Wind Speed Wind Dir Waves Ship Positions

Callsign BATFR15 (name unknown)

Last reported at 2016-Jul-24 08:00 UTC. Time now 2016-Jul-24 08:46 UTC.
Position N 44°12' W 033°06'.

Wind from 300 at 12 knots

Barometer 1028.0 mb
Air temperature 19.0 ° C
Water temperature 19.9 ° C

Date/timePositionNaut miles runAvg speedWind from/ knotsBaromVisibWave heightAir tempDewpointWater temp
2016-Jul-24 08:00N 44°12' W 033°06'1818.2 300 / 121028.0 19.0 19.9
2016-Jul-24 07:00N 44°18' W 032°42'1818.2 300 / 141027.5 19.0 19.9
2016-Jul-24 06:00N 44°24' W 032°18'1818.2 310 / 111027.2 2.2 19.4 19.9
2016-Jul-24 05:00N 44°30' W 031°54'1818.1 300 / 81027.0 19.4 19.7
2016-Jul-24 04:00N 44°36' W 031°30'1818.1 040 / 41027.3 19.4 19.9
2016-Jul-24 03:00N 44°42' W 031°06'2120.8 030 / 61027.8 5.4 18.7 19.9
2016-Jul-24 02:00N 44°54' W 030°42'1818.0 1028.1 18.7 19.7
2016-Jul-24 01:00N 45°00' W 030°18'1818.0 010 / 41028.2 18.2 18.7
2016-Jul-24 00:00N 45°06' W 029°54'1818.0 330 / 71027.9 5.4 1.017.9 18.7
2016-Jul-23 23:00N 45°12' W 029°30'1817.9 330 / 81027.8 17.9 18.5
2016-Jul-23 22:00N 45°18' W 029°06'2221.9 330 / 101027.0 17.9 18.4
2016-Jul-23 21:00N 45°24' W 028°36'1817.9 320 / 121026.7 2.2 2.017.7 18.2
2016-Jul-23 20:00N 45°30' W 028°12'1817.8 330 / 131026.0 17.7 18.4
2016-Jul-23 19:00N 45°36' W 027°48'2121.0 310 / 151025.6 17.9 18.2
2016-Jul-23 18:00N 45°36' W 027°18'1817.8 290 / 131024.7 18.4 18.2
2016-Jul-23 17:00N 45°42' W 026°54'1817.8 280 / 121024.2 18.4 17.7
2016-Jul-23 16:00N 45°48' W 026°30'1817.8 260 / 141024.1 18.4 17.5
2016-Jul-23 15:00N 45°54' W 026°06'1817.7 250 / 161024.1 0.5 2.018.7 17.9
2016-Jul-23 14:00N 46°00' W 025°42'1817.7 230 / 201024.4 19.4 18.7
2016-Jul-23 13:00N 46°06' W 025°18'1817.7 230 / 191024.9 19.7 18.7
2016-Jul-23 12:00N 46°12' W 024°54'3416.9 250 / 211025.3 5.4 1.019.4 18.7
2016-Jul-23 10:00N 46°18' W 024°06'3919.6 240 / 191024.7 18.7 17.5
2016-Jul-23 08:00N 46°30' W 023°12'1716.5 240 / 201024.1 18.7 18.0
2016-Jul-23 07:00N 46°30' W 022°48'1817.6 240 / 211024.0 18.7 18.0
2016-Jul-23 06:00N 46°36' W 022°24'1817.5 250 / 211024.0 0.5 18.7 18.2
2016-Jul-23 05:00N 46°42' W 022°00'2120.6 240 / 191024.2 18.7 18.2
2016-Jul-23 04:00N 46°42' W 021°30'1817.5 250 / 161024.7 18.5 18.2
2016-Jul-23 03:00N 46°48' W 021°06'1717.5 260 / 131025.1 2.2 2.018.4 18.2
2016-Jul-23 02:00N 46°54' W 020°42'1717.4 260 / 151025.6 18.4 18.5
2016-Jul-23 01:00N 47°00' W 020°18'1616.4 260 / 121025.9 18.0 18.4
2016-Jul-23 00:00N 47°00' W 019°54'2121.3 270 / 151026.1 0.0 3.018.2 18.2
2016-Jul-22 23:00N 47°06' W 019°24'1616.3 270 / 141026.2 18.0 17.7
2016-Jul-22 22:00N 47°06' W 019°00'1717.4 280 / 131026.1 18.4 17.7
2016-Jul-22 21:00N 47°12' W 018°36'2020.4 270 / 141025.5 5.4 3.017.9 17.0
2016-Jul-22 20:00N 47°12' W 018°06'1717.4 270 / 151025.0 17.9 17.4
2016-Jul-22 19:00N 47°18' W 017°42'2020.3 280 / 181024.5 18.0 17.4
2016-Jul-22 18:00N 47°18' W 017°12'1717.3 270 / 161024.0 17.9 17.2
2016-Jul-22 17:00N 47°24' W 016°48'1717.3 270 / 201023.8 18.2 17.5
2016-Jul-22 16:00N 47°30' W 016°24'1616.2 270 / 191023.5 18.2 18.0
2016-Jul-22 15:00N 47°30' W 016°00'1717.3 260 / 231023.5 5.4 18.4 17.7
2016-Jul-22 14:00N 47°36' W 015°36'2020.2 260 / 201023.8 18.2 17.9
2016-Jul-22 13:00N 47°36' W 015°06'1616.2 240 / 191024.0 17.7 18.5
2016-Jul-22 12:00N 47°36' W 014°42'1717.2 250 / 151024.3 5.4 2.017.9 18.2
2016-Jul-22 11:00N 47°42' W 014°18'2020.2 290 / 111024.8 17.4 18.4
2016-Jul-22 10:00N 47°42' W 013°48'1616.2 320 / 181024.7 16.7 18.2
2016-Jul-22 09:00N 47°42' W 013°24'2121.0 320 / 151024.3 5.4 3.016.9 17.9
2016-Jul-22 08:00N 47°48' W 012°54'1616.1 330 / 181023.4 15.9 17.9
2016-Jul-22 07:00N 47°48' W 012°30'2020.2 330 / 161022.7 16.5 17.9
2016-Jul-22 06:00N 47°48' W 012°00'1717.2 320 / 221021.610.8 15.7 18.0
2016-Jul-22 05:00N 47°54' W 011°36'1616.1 330 / 211020.8 16.7 18.0
2016-Jul-22 04:00N 47°54' W 011°12'2121.0 340 / 171020.1 16.4 17.5
2016-Jul-22 03:00N 48°00' W 010°42'1616.1 340 / 201019.5 5.4 2.016.4 17.9
2016-Jul-22 02:00N 48°00' W 010°18'2020.1 330 / 241018.9 15.9 18.2
2016-Jul-22 01:00N 48°00' W 009°48'1616.1 340 / 211018.2 16.7 17.9
2016-Jul-22 00:00N 48°00' W 009°24'2020.1 330 / 171017.7 5.4 1.017.2 18.2
2016-Jul-21 23:00N 48°00' W 008°54'1717.1 280 / 91017.5 17.9 17.4
2016-Jul-21 22:00N 48°06' W 008°30'2020.0 310 / 91016.8 17.4 17.2
2016-Jul-21 21:00N 48°06' W 008°00'1616.0 280 / 101016.4 5.4 3.017.4 17.9
2016-Jul-21 20:00N 48°06' W 007°36'2020.0 200 / 101016.0 18.0 17.5
2016-Jul-21 19:00N 48°06' W 007°06'1616.0 180 / 91016.1 18.4 18.4
2016-Jul-21 18:00N 48°06' W 006°42'2020.0 210 / 81016.110.8 19.2 18.4
2016-Jul-21 17:00N 48°06' W 006°12'1717.1 170 / 91016.3 18.9 18.9
2016-Jul-21 16:00N 48°12' W 005°48'2020.0 160 / 141016.8 18.9 19.2
2016-Jul-21 15:00N 48°12' W 005°18'1616.0 160 / 101017.4 5.4 1.018.2 17.5
2016-Jul-21 14:00N 48°12' W 004°54'7 7.2 170 / 81018.0 18.2 16.9
2016-Jul-21 13:00N 48°18' W 004°48'3310.8 180 / 91018.6 17.7 16.5
2016-Jul-21 10:00N 48°12' W 005°36'2020.0 180 / 141017.9 17.5 18.4
2016-Jul-21 09:00N 48°24' W 006°00'1717.0 190 / 131017.6 0.5 1.017.9 18.9
2016-Jul-21 08:00N 48°30' W 006°24'2019.9 190 / 121017.0 17.7 18.9
2016-Jul-21 07:00N 48°42' W 006°48'4019.8 200 / 151016.5 17.2 18.7
2016-Jul-21 05:00N 49°06' W 007°36'3216.0 200 / 181015.7 17.4 18.2
2016-Jul-21 03:00N 49°12' W 008°24'8 7.8 190 / 121016.110.8 1.017.2 17.9
2016-Jul-21 02:00N 49°12' W 008°12'1211.8 220 / 131016.3 17.4 18.2
2016-Jul-21 01:00N 49°12' W 007°54'2019.6 220 / 121016.8 17.9 18.0
2016-Jul-21 00:00N 49°12' W 007°24'1716.8 250 / 101017.2 5.4 18.2 18.2
2016-Jul-20 23:00N 49°18' W 007°00'2019.6 260 / 111017.4 18.0 18.5
2016-Jul-20 22:00N 49°18' W 006°30'2019.6 290 / 91017.5 17.2 18.2
2016-Jul-20 21:00N 49°18' W 006°00'1716.7 320 / 151016.9 5.4 3.017.2 18.7
2016-Jul-20 20:00N 49°24' W 005°36'1716.7 310 / 161016.4 17.4 18.7
2016-Jul-20 19:00N 49°30' W 005°12'1313.1 300 / 171015.6 17.4 18.9
2016-Jul-20 18:00N 49°36' W 004°54'1211.7 290 / 181015.310.8 17.7 18.7
2016-Jul-20 17:00N 49°36' W 004°36'1313.1 290 / 181015.2 17.7 18.2
2016-Jul-20 16:00N 49°42' W 004°18'1211.6 290 / 191014.6 17.9 18.2
2016-Jul-20 15:00N 49°42' W 004°00'1313.1 290 / 221014.2 18.4 17.9
2016-Jul-20 14:00N 49°48' W 003°42'1313.1 300 / 141013.9 18.7 17.7
2016-Jul-20 13:00N 49°54' W 003°24'1716.6 300 / 191013.0 18.4 16.9
2016-Jul-20 12:00N 50°00' W 003°00'2020.2 270 / 151011.9 5.4 1.017.7 16.0
2016-Jul-20 11:00N 50°06' W 002°30'1515.4 290 / 231010.9 16.9 15.0
2016-Jul-20 10:00N 50°06' W 002°06'1515.4 250 / 241010.3 17.4 15.0
2016-Jul-20 09:00N 50°06' W 001°42'1313.0 240 / 271010.0 1.1 2.016.5 15.2
2016-Jul-20 08:00N 50°00' W 001°24'10 9.8 240 / 311009.6 16.9 15.5
2016-Jul-20 07:00N 49°54' W 001°12'10 9.8 230 / 251009.8 18.5 16.0
2016-Jul-20 06:00N 49°48' W 001°00'1313.1 210 / 151009.7 2.2 18.2 15.9
2016-Jul-20 05:00N 49°42' W 000°42'1313.1 220 / 131009.5 18.7 16.4
2016-Jul-20 04:00N 49°36' W 000°24'1313.1 200 / 91010.0 22.2 17.9
2016-Jul-20 03:00N 49°30' W 000°06'0 0.0 160 / 171009.6 24.4 18.2
2016-Jul-19 03:00N 49°30' W 000°06'7 7.2 120 / 211017.6 21.9 18.7
2016-Jul-19 02:00N 49°36' W 000°12'6 6.0 120 / 81018.2 21.7 14.2
2016-Jul-19 01:00N 49°42' W 000°12'1212.0 070 / 121018.6 19.4 17.7
2016-Jul-19 00:00N 49°54' W 000°12'1818.0 070 / 131018.9 17.4 15.7
2016-Jul-18 23:00N 50°12' W 000°12'1212.0 070 / 131019.5 17.2 15.4
2016-Jul-18 22:00N 50°24' W 000°12'1312.9 070 / 141019.9 17.9 15.9
2016-Jul-18 21:00N 50°30' E 000°06'1616.4 060 / 101020.4 18.2 16.0
2016-Jul-18 20:00N 50°36' E 000°30'1312.9 050 / 81020.5 19.4 18.0
2016-Jul-18 19:00N 50°42' E 000°48'1919.3 050 / 91020.9 21.2 17.7
2016-Jul-18 18:00N 50°54' E 001°12'1919.3 060 / 121021.3 20.0 16.2
2016-Jul-18 17:00N 51°06' E 001°36'2121.2 080 / 41021.6 21.4 16.9
2016-Jul-18 16:00N 51°24' E 001°54'1918.7 080 / 51022.0 22.2 16.9
2016-Jul-18 15:00N 51°24' E 002°24'1515.0 020 / 61022.2 19.2 17.4
2016-Jul-18 14:00N 51°24' E 002°48'1918.7 1022.4 20.4 18.7
2016-Jul-18 13:00N 51°24' E 003°18'1111.2 1022.3 20.4 20.2
2016-Jul-18 12:00N 51°24' E 003°36'1111.2 280 / 71022.0 23.2 19.7
2016-Jul-18 11:00N 51°24' E 003°54'7 7.5 300 / 71022.2 23.2 20.2
2016-Jul-18 10:00N 51°24' E 004°06'10 9.6 310 / 81022.2 22.7 20.7
2016-Jul-18 09:00N 51°18' E 004°18'0 0.0 240 / 51022.2 23.4 20.9
2016-Jul-17 19:00N 51°18' E 004°18'36 8.9 320 / 61021.6 22.2 20.9
2016-Jul-17 15:00N 51°30' E 003°24'1312.6 240 / 121021.6 19.5 19.4
2016-Jul-17 14:00N 51°42' E 003°18'3015.2 240 / 161021.6 18.9 18.0
2016-Jul-17 12:00N 52°06' E 003°48'10 9.5 250 / 91021.7 20.2 17.7
2016-Jul-17 11:00N 52°00' E 004°00'1312.6 280 / 71022.0 20.9 18.9
2016-Jul-17 10:00N 51°54' E 004°18'4 0.2 310 / 71022.2 20.4 20.9
2016-Jul-16 15:00N 51°54' E 004°24'7 7.4 280 / 81023.8 22.4 20.9
2016-Jul-16 14:00N 51°54' E 004°12'1312.6 270 / 111024.1 20.2 20.7
2016-Jul-16 13:00N 52°00' E 003°54'1312.6 250 / 161024.0 18.7 17.7
2016-Jul-16 12:00N 52°12' E 003°48'1212.0 250 / 191023.8 17.7 17.0
2016-Jul-16 11:00N 52°24' E 003°48'4715.8 250 / 191023.4 17.7 16.9
2016-Jul-16 08:00N 53°06' E 004°24'1818.4 270 / 221021.6 16.9 17.2
2016-Jul-16 07:00N 53°24' E 004°30'1615.5 250 / 211020.8 16.9 16.2
2016-Jul-16 06:00N 53°30' E 004°54'1515.5 250 / 191020.3 17.2 16.4
2016-Jul-16 05:00N 53°36' E 005°18'1212.2 250 / 191020.0 16.9 16.9
2016-Jul-16 04:00N 53°42' E 005°36'1414.2 260 / 181020.0 17.2 17.2
2016-Jul-16 03:00N 53°42' E 006°00'1515.4 250 / 191020.4 16.7 16.9
2016-Jul-16 02:00N 53°48' E 006°24'1918.7 240 / 181020.4 18.2 17.2
2016-Jul-16 01:00N 53°54' E 006°54'1515.3 230 / 191020.8 17.7 17.2
2016-Jul-16 00:00N 54°00' E 007°18'1817.6 260 / 191021.6 16.7 17.0
2016-Jul-15 23:00N 54°00' E 007°48'1414.1 260 / 191021.9 15.9 17.2
2016-Jul-15 22:00N 54°00' E 008°12'1515.3 260 / 131022.1 18.2 17.7
2016-Jul-15 21:00N 53°54' E 008°36'1515.4 280 / 101022.3 16.7 17.7
2016-Jul-15 20:00N 53°48' E 009°00'1212.2 300 / 161022.5 15.9 18.4
2016-Jul-15 19:00N 53°54' E 009°18'1413.9 300 / 141022.4 15.9 19.4
2016-Jul-15 18:00N 53°42' E 009°30'1212.2 290 / 91022.9 16.4 9.219.9
2016-Jul-15 17:00N 53°36' E 009°48'7 0.5 300 / 141022.5 16.4 20.4
2016-Jul-15 03:00N 53°36' E 009°36'7 7.0 290 / 111017.6 14.4 20.2
2016-Jul-15 02:00N 53°42' E 009°30'1616.0 300 / 151017.2 17.5 19.9
2016-Jul-15 01:00N 53°54' E 009°12'9 9.3 300 / 161017.1 15.0 19.2
2016-Jul-15 00:00N 53°48' E 009°00'1212.2 300 / 221017.4 14.4 18.5
2016-Jul-14 23:00N 53°54' E 008°42'1212.2 320 / 151017.6 18.7 18.2
2016-Jul-14 22:00N 54°00' E 008°24'1414.1 310 / 231017.4 14.9 17.9
2016-Jul-14 21:00N 54°00' E 008°00'1212.2 300 / 221017.6 14.9 17.2
2016-Jul-14 20:00N 53°54' E 007°42'1110.6 300 / 241017.7 15.4 17.7
2016-Jul-14 19:00N 53°54' E 007°24'1212.2 300 / 251017.7 15.0 17.4
2016-Jul-14 18:00N 53°48' E 007°06'1110.6 300 / 271017.9 15.2 17.4
2016-Jul-14 17:00N 53°48' E 006°48'1414.2 300 / 281018.1 15.2 17.4
2016-Jul-14 16:00N 53°48' E 006°24'3712.5 300 / 241018.9 15.2 17.4
2016-Jul-14 13:00N 53°36' E 005°24'1212.3 310 / 241019.1 14.7 17.2
2016-Jul-14 12:00N 53°30' E 005°06'1212.3 310 / 231019.3 14.4 17.4
2016-Jul-14 11:00N 53°24' E 004°48'1414.0 310 / 201019.6 15.0 16.4
2016-Jul-14 10:00N 53°12' E 004°36'9 9.4 310 / 171019.3 15.0 17.5
2016-Jul-14 09:00N 53°06' E 004°24'1312.5 320 / 131019.4 14.9 17.7
2016-Jul-14 08:00N 52°54' E 004°18'   330 / 141019.4 14.7 16.4
Track history (hours):
 
Tides and Currents Weather Stations Pressure Air Temp Water Temp Dewpoint Dewpoint Depression Visibility Wind Speed Wind Dir Waves Ship Positions

Callsign BATFR15 (name unknown)

Last reported at 2016-Jul-24 08:00 UTC. Time now 2016-Jul-24 08:46 UTC.
Position N 44°12' W 033°06'.

Wind from 300 at 12 knots

Barometer 1028.0 mb
Air temperature 19.0 ° C
Water temperature 19.9 ° C

Date/timePositionNaut miles runAvg speedWind from/ knotsBaromVisibWave heightAir tempDewpointWater temp
2016-Jul-24 08:00N 44°12' W 033°06'1818.2 300 / 121028.0 19.0 19.9
2016-Jul-24 07:00N 44°18' W 032°42'1818.2 300 / 141027.5 19.0 19.9
2016-Jul-24 06:00N 44°24' W 032°18'1818.2 310 / 111027.2 2.2 19.4 19.9
2016-Jul-24 05:00N 44°30' W 031°54'1818.1 300 / 81027.0 19.4 19.7
2016-Jul-24 04:00N 44°36' W 031°30'1818.1 040 / 41027.3 19.4 19.9
2016-Jul-24 03:00N 44°42' W 031°06'2120.8 030 / 61027.8 5.4 18.7 19.9
2016-Jul-24 02:00N 44°54' W 030°42'1818.0 1028.1 18.7 19.7
2016-Jul-24 01:00N 45°00' W 030°18'1818.0 010 / 41028.2 18.2 18.7
2016-Jul-24 00:00N 45°06' W 029°54'1818.0 330 / 71027.9 5.4 1.017.9 18.7
2016-Jul-23 23:00N 45°12' W 029°30'1817.9 330 / 81027.8 17.9 18.5
2016-Jul-23 22:00N 45°18' W 029°06'2221.9 330 / 101027.0 17.9 18.4
2016-Jul-23 21:00N 45°24' W 028°36'1817.9 320 / 121026.7 2.2 2.017.7 18.2
2016-Jul-23 20:00N 45°30' W 028°12'1817.8 330 / 131026.0 17.7 18.4
2016-Jul-23 19:00N 45°36' W 027°48'2121.0 310 / 151025.6 17.9 18.2
2016-Jul-23 18:00N 45°36' W 027°18'1817.8 290 / 131024.7 18.4 18.2
2016-Jul-23 17:00N 45°42' W 026°54'1817.8 280 / 121024.2 18.4 17.7
2016-Jul-23 16:00N 45°48' W 026°30'1817.8 260 / 141024.1 18.4 17.5
2016-Jul-23 15:00N 45°54' W 026°06'1817.7 250 / 161024.1 0.5 2.018.7 17.9
2016-Jul-23 14:00N 46°00' W 025°42'1817.7 230 / 201024.4 19.4 18.7
2016-Jul-23 13:00N 46°06' W 025°18'1817.7 230 / 191024.9 19.7 18.7
2016-Jul-23 12:00N 46°12' W 024°54'3416.9 250 / 211025.3 5.4 1.019.4 18.7
2016-Jul-23 10:00N 46°18' W 024°06'3919.6 240 / 191024.7 18.7 17.5
2016-Jul-23 08:00N 46°30' W 023°12'1716.5 240 / 201024.1 18.7 18.0
2016-Jul-23 07:00N 46°30' W 022°48'1817.6 240 / 211024.0 18.7 18.0
2016-Jul-23 06:00N 46°36' W 022°24'1817.5 250 / 211024.0 0.5 18.7 18.2
2016-Jul-23 05:00N 46°42' W 022°00'2120.6 240 / 191024.2 18.7 18.2
2016-Jul-23 04:00N 46°42' W 021°30'1817.5 250 / 161024.7 18.5 18.2
2016-Jul-23 03:00N 46°48' W 021°06'1717.5 260 / 131025.1 2.2 2.018.4 18.2
2016-Jul-23 02:00N 46°54' W 020°42'1717.4 260 / 151025.6 18.4 18.5
2016-Jul-23 01:00N 47°00' W 020°18'1616.4 260 / 121025.9 18.0 18.4
2016-Jul-23 00:00N 47°00' W 019°54'2121.3 270 / 151026.1 0.0 3.018.2 18.2
2016-Jul-22 23:00N 47°06' W 019°24'1616.3 270 / 141026.2 18.0 17.7
2016-Jul-22 22:00N 47°06' W 019°00'1717.4 280 / 131026.1 18.4 17.7
2016-Jul-22 21:00N 47°12' W 018°36'2020.4 270 / 141025.5 5.4 3.017.9 17.0
2016-Jul-22 20:00N 47°12' W 018°06'1717.4 270 / 151025.0 17.9 17.4
2016-Jul-22 19:00N 47°18' W 017°42'2020.3 280 / 181024.5 18.0 17.4
2016-Jul-22 18:00N 47°18' W 017°12'1717.3 270 / 161024.0 17.9 17.2
2016-Jul-22 17:00N 47°24' W 016°48'1717.3 270 / 201023.8 18.2 17.5
2016-Jul-22 16:00N 47°30' W 016°24'1616.2 270 / 191023.5 18.2 18.0
2016-Jul-22 15:00N 47°30' W 016°00'1717.3 260 / 231023.5 5.4 18.4 17.7
2016-Jul-22 14:00N 47°36' W 015°36'2020.2 260 / 201023.8 18.2 17.9
2016-Jul-22 13:00N 47°36' W 015°06'1616.2 240 / 191024.0 17.7 18.5
2016-Jul-22 12:00N 47°36' W 014°42'1717.2 250 / 151024.3 5.4 2.017.9 18.2
2016-Jul-22 11:00N 47°42' W 014°18'2020.2 290 / 111024.8 17.4 18.4
2016-Jul-22 10:00N 47°42' W 013°48'1616.2 320 / 181024.7 16.7 18.2
2016-Jul-22 09:00N 47°42' W 013°24'2121.0 320 / 151024.3 5.4 3.016.9 17.9
2016-Jul-22 08:00N 47°48' W 012°54'1616.1 330 / 181023.4 15.9 17.9
2016-Jul-22 07:00N 47°48' W 012°30'2020.2 330 / 161022.7 16.5 17.9
2016-Jul-22 06:00N 47°48' W 012°00'1717.2 320 / 221021.610.8 15.7 18.0
2016-Jul-22 05:00N 47°54' W 011°36'1616.1 330 / 211020.8 16.7 18.0
2016-Jul-22 04:00N 47°54' W 011°12'2121.0 340 / 171020.1 16.4 17.5
2016-Jul-22 03:00N 48°00' W 010°42'1616.1 340 / 201019.5 5.4 2.016.4 17.9
2016-Jul-22 02:00N 48°00' W 010°18'2020.1 330 / 241018.9 15.9 18.2
2016-Jul-22 01:00N 48°00' W 009°48'1616.1 340 / 211018.2 16.7 17.9
2016-Jul-22 00:00N 48°00' W 009°24'2020.1 330 / 171017.7 5.4 1.017.2 18.2
2016-Jul-21 23:00N 48°00' W 008°54'1717.1 280 / 91017.5 17.9 17.4
2016-Jul-21 22:00N 48°06' W 008°30'2020.0 310 / 91016.8 17.4 17.2
2016-Jul-21 21:00N 48°06' W 008°00'1616.0 280 / 101016.4 5.4 3.017.4 17.9
2016-Jul-21 20:00N 48°06' W 007°36'2020.0 200 / 101016.0 18.0 17.5
2016-Jul-21 19:00N 48°06' W 007°06'1616.0 180 / 91016.1 18.4 18.4
2016-Jul-21 18:00N 48°06' W 006°42'2020.0 210 / 81016.110.8 19.2 18.4
2016-Jul-21 17:00N 48°06' W 006°12'1717.1 170 / 91016.3 18.9 18.9
2016-Jul-21 16:00N 48°12' W 005°48'2020.0 160 / 141016.8 18.9 19.2
2016-Jul-21 15:00N 48°12' W 005°18'1616.0 160 / 101017.4 5.4 1.018.2 17.5
2016-Jul-21 14:00N 48°12' W 004°54'7 7.2 170 / 81018.0 18.2 16.9
2016-Jul-21 13:00N 48°18' W 004°48'3310.8 180 / 91018.6 17.7 16.5
2016-Jul-21 10:00N 48°12' W 005°36'2020.0 180 / 141017.9 17.5 18.4
2016-Jul-21 09:00N 48°24' W 006°00'1717.0 190 / 131017.6 0.5 1.017.9 18.9
2016-Jul-21 08:00N 48°30' W 006°24'2019.9 190 / 121017.0 17.7 18.9
2016-Jul-21 07:00N 48°42' W 006°48'4019.8 200 / 151016.5 17.2 18.7
2016-Jul-21 05:00N 49°06' W 007°36'3216.0 200 / 181015.7 17.4 18.2
2016-Jul-21 03:00N 49°12' W 008°24'8 7.8 190 / 121016.110.8 1.017.2 17.9
2016-Jul-21 02:00N 49°12' W 008°12'1211.8 220 / 131016.3 17.4 18.2
2016-Jul-21 01:00N 49°12' W 007°54'2019.6 220 / 121016.8 17.9 18.0
2016-Jul-21 00:00N 49°12' W 007°24'1716.8 250 / 101017.2 5.4 18.2 18.2
2016-Jul-20 23:00N 49°18' W 007°00'2019.6 260 / 111017.4 18.0 18.5
2016-Jul-20 22:00N 49°18' W 006°30'2019.6 290 / 91017.5 17.2 18.2
2016-Jul-20 21:00N 49°18' W 006°00'1716.7 320 / 151016.9 5.4 3.017.2 18.7
2016-Jul-20 20:00N 49°24' W 005°36'1716.7 310 / 161016.4 17.4 18.7
2016-Jul-20 19:00N 49°30' W 005°12'1313.1 300 / 171015.6 17.4 18.9
2016-Jul-20 18:00N 49°36' W 004°54'1211.7 290 / 181015.310.8 17.7 18.7
2016-Jul-20 17:00N 49°36' W 004°36'1313.1 290 / 181015.2 17.7 18.2
2016-Jul-20 16:00N 49°42' W 004°18'1211.6 290 / 191014.6 17.9 18.2
2016-Jul-20 15:00N 49°42' W 004°00'1313.1 290 / 221014.2 18.4 17.9
2016-Jul-20 14:00N 49°48' W 003°42'1313.1 300 / 141013.9 18.7 17.7
2016-Jul-20 13:00N 49°54' W 003°24'1716.6 300 / 191013.0 18.4 16.9
2016-Jul-20 12:00N 50°00' W 003°00'2020.2 270 / 151011.9 5.4 1.017.7 16.0
2016-Jul-20 11:00N 50°06' W 002°30'1515.4 290 / 231010.9 16.9 15.0
2016-Jul-20 10:00N 50°06' W 002°06'1515.4 250 / 241010.3 17.4 15.0
2016-Jul-20 09:00N 50°06' W 001°42'1313.0 240 / 271010.0 1.1 2.016.5 15.2
2016-Jul-20 08:00N 50°00' W 001°24'10 9.8 240 / 311009.6 16.9 15.5
2016-Jul-20 07:00N 49°54' W 001°12'10 9.8 230 / 251009.8 18.5 16.0
2016-Jul-20 06:00N 49°48' W 001°00'1313.1 210 / 151009.7 2.2 18.2 15.9
2016-Jul-20 05:00N 49°42' W 000°42'1313.1 220 / 131009.5 18.7 16.4
2016-Jul-20 04:00N 49°36' W 000°24'1313.1 200 / 91010.0 22.2 17.9
2016-Jul-20 03:00N 49°30' W 000°06'0 0.0 160 / 171009.6 24.4 18.2
2016-Jul-19 03:00N 49°30' W 000°06'7 7.2 120 / 211017.6 21.9 18.7
2016-Jul-19 02:00N 49°36' W 000°12'6 6.0 120 / 81018.2 21.7 14.2
2016-Jul-19 01:00N 49°42' W 000°12'1212.0 070 / 121018.6 19.4 17.7
2016-Jul-19 00:00N 49°54' W 000°12'1818.0 070 / 131018.9 17.4 15.7
2016-Jul-18 23:00N 50°12' W 000°12'1212.0 070 / 131019.5 17.2 15.4
2016-Jul-18 22:00N 50°24' W 000°12'1312.9 070 / 141019.9 17.9 15.9
2016-Jul-18 21:00N 50°30' E 000°06'1616.4 060 / 101020.4 18.2 16.0
2016-Jul-18 20:00N 50°36' E 000°30'1312.9 050 / 81020.5 19.4 18.0
2016-Jul-18 19:00N 50°42' E 000°48'1919.3 050 / 91020.9 21.2 17.7
2016-Jul-18 18:00N 50°54' E 001°12'1919.3 060 / 121021.3 20.0 16.2
2016-Jul-18 17:00N 51°06' E 001°36'2121.2 080 / 41021.6 21.4 16.9
2016-Jul-18 16:00N 51°24' E 001°54'1918.7 080 / 51022.0 22.2 16.9
2016-Jul-18 15:00N 51°24' E 002°24'1515.0 020 / 61022.2 19.2 17.4
2016-Jul-18 14:00N 51°24' E 002°48'1918.7 1022.4 20.4 18.7
2016-Jul-18 13:00N 51°24' E 003°18'1111.2 1022.3 20.4 20.2
2016-Jul-18 12:00N 51°24' E 003°36'1111.2 280 / 71022.0 23.2 19.7
2016-Jul-18 11:00N 51°24' E 003°54'7 7.5 300 / 71022.2 23.2 20.2
2016-Jul-18 10:00N 51°24' E 004°06'10 9.6 310 / 81022.2 22.7 20.7
2016-Jul-18 09:00N 51°18' E 004°18'0 0.0 240 / 51022.2 23.4 20.9
2016-Jul-17 19:00N 51°18' E 004°18'36 8.9 320 / 61021.6 22.2 20.9
2016-Jul-17 15:00N 51°30' E 003°24'1312.6 240 / 121021.6 19.5 19.4
2016-Jul-17 14:00N 51°42' E 003°18'3015.2 240 / 161021.6 18.9 18.0
2016-Jul-17 12:00N 52°06' E 003°48'10 9.5 250 / 91021.7 20.2 17.7
2016-Jul-17 11:00N 52°00' E 004°00'1312.6 280 / 71022.0 20.9 18.9
2016-Jul-17 10:00N 51°54' E 004°18'4 0.2 310 / 71022.2 20.4 20.9
2016-Jul-16 15:00N 51°54' E 004°24'7 7.4 280 / 81023.8 22.4 20.9
2016-Jul-16 14:00N 51°54' E 004°12'1312.6 270 / 111024.1 20.2 20.7
2016-Jul-16 13:00N 52°00' E 003°54'1312.6 250 / 161024.0 18.7 17.7
2016-Jul-16 12:00N 52°12' E 003°48'1212.0 250 / 191023.8 17.7 17.0
2016-Jul-16 11:00N 52°24' E 003°48'4715.8 250 / 191023.4 17.7 16.9
2016-Jul-16 08:00N 53°06' E 004°24'1818.4 270 / 221021.6 16.9 17.2
2016-Jul-16 07:00N 53°24' E 004°30'1615.5 250 / 211020.8 16.9 16.2
2016-Jul-16 06:00N 53°30' E 004°54'1515.5 250 / 191020.3 17.2 16.4
2016-Jul-16 05:00N 53°36' E 005°18'1212.2 250 / 191020.0 16.9 16.9
2016-Jul-16 04:00N 53°42' E 005°36'1414.2 260 / 181020.0 17.2 17.2
2016-Jul-16 03:00N 53°42' E 006°00'1515.4 250 / 191020.4 16.7 16.9
2016-Jul-16 02:00N 53°48' E 006°24'1918.7 240 / 181020.4 18.2 17.2
2016-Jul-16 01:00N 53°54' E 006°54'1515.3 230 / 191020.8 17.7 17.2
2016-Jul-16 00:00N 54°00' E 007°18'1817.6 260 / 191021.6 16.7 17.0
2016-Jul-15 23:00N 54°00' E 007°48'1414.1 260 / 191021.9 15.9 17.2
2016-Jul-15 22:00N 54°00' E 008°12'1515.3 260 / 131022.1 18.2 17.7
2016-Jul-15 21:00N 53°54' E 008°36'1515.4 280 / 101022.3 16.7 17.7
2016-Jul-15 20:00N 53°48' E 009°00'1212.2 300 / 161022.5 15.9 18.4
2016-Jul-15 19:00N 53°54' E 009°18'1413.9 300 / 141022.4 15.9 19.4
2016-Jul-15 18:00N 53°42' E 009°30'1212.2 290 / 91022.9 16.4 9.219.9
2016-Jul-15 17:00N 53°36' E 009°48'7 0.5 300 / 141022.5 16.4 20.4
2016-Jul-15 03:00N 53°36' E 009°36'7 7.0 290 / 111017.6 14.4 20.2
2016-Jul-15 02:00N 53°42' E 009°30'1616.0 300 / 151017.2 17.5 19.9
2016-Jul-15 01:00N 53°54' E 009°12'9 9.3 300 / 161017.1 15.0 19.2
2016-Jul-15 00:00N 53°48' E 009°00'1212.2 300 / 221017.4 14.4 18.5
2016-Jul-14 23:00N 53°54' E 008°42'1212.2 320 / 151017.6 18.7 18.2
2016-Jul-14 22:00N 54°00' E 008°24'1414.1 310 / 231017.4 14.9 17.9
2016-Jul-14 21:00N 54°00' E 008°00'1212.2 300 / 221017.6 14.9 17.2
2016-Jul-14 20:00N 53°54' E 007°42'1110.6 300 / 241017.7 15.4 17.7
2016-Jul-14 19:00N 53°54' E 007°24'1212.2 300 / 251017.7 15.0 17.4
2016-Jul-14 18:00N 53°48' E 007°06'1110.6 300 / 271017.9 15.2 17.4
2016-Jul-14 17:00N 53°48' E 006°48'1414.2 300 / 281018.1 15.2 17.4
2016-Jul-14 16:00N 53°48' E 006°24'3712.5 300 / 241018.9 15.2 17.4
2016-Jul-14 13:00N 53°36' E 005°24'1212.3 310 / 241019.1 14.7 17.2
2016-Jul-14 12:00N 53°30' E 005°06'1212.3 310 / 231019.3 14.4 17.4
2016-Jul-14 11:00N 53°24' E 004°48'1414.0 310 / 201019.6 15.0 16.4
2016-Jul-14 10:00N 53°12' E 004°36'9 9.4 310 / 171019.3 15.0 17.5
2016-Jul-14 09:00N 53°06' E 004°24'1312.5 320 / 131019.4 14.9 17.7
2016-Jul-14 08:00N 52°54' E 004°18'   330 / 141019.4 14.7 16.4

Dump ship's entire track history